Zhuhua, Taiwan

2:19 PM CST on May 27, 2017 (GMT +0800)
Guangzhou Street | | Change Station

Elev 29 ft 25.04 °N, 121.50 °E | Updated 2 minutes ago

Rain
Rain
73.8 °F
Feels Like 74 °F
N
1.9
Wind Variable Wind from North
Gusts 5.6 mph

Today
High -- | Low -- °F
--% Chance of Precip.
Yesterday
High -- | Low -- °F
Precip. -- in
Pressure 29.89 in
Visibility 2.8 miles
Clouds Few 800 ft
Mostly Cloudy 2500 ft
Mostly Cloudy 5000 ft
Heat Index 74 °F
Dew Point 68 °F
Humidity 82%
Rainfall 0.09 in
Snow Depth Not available.
5:05 AM 6:37 PM
Waxing Crescent, 3% visible
METAR RCSS 270600Z 10011KT 4500 -RA FEW008 BKN025 BKN050 21/19 Q1012 RERA TEMPO 3000 RA RMK A2989 RA AMT 5.0MM
Pressure 29.89 in
Visibility 2.8 miles
Clouds Few 800 ft
Mostly Cloudy 2500 ft
Mostly Cloudy 5000 ft
Heat Index 74 °F
Dew Point 68 °F
Humidity 82%
Rainfall 0.09 in
Snow Depth Not available.
5:05 AM 6:37 PM
Waxing Crescent, 3% visible
METAR RCSS 270600Z 10011KT 4500 -RA FEW008 BKN025 BKN050 21/19 Q1012 RERA TEMPO 3000 RA RMK A2989 RA AMT 5.0MM

Get Severe Weather Alerts

Thanks for signing up!

Be on the lookout for a verification email in your inbox.

You'll start receiving the daily forecast at 6 AM.

×

10-Day Weather Forecast

No radar image for this location.
×

Almanac

Astronomy

May. 27, 2017 Rise Set
Actual Time
Civil Twilight
Nautical Twilight
Astronomical Twilight
Moon
Length of Visible Light
Length of Day
Tomorrow will be .
, % of the Moon is Illuminated

Today's Extremes

Country Highs Country Lows

Community

WunderPhotos

Category 6

Welcome to Category 6. This is the collective home for Weather Underground's featured writeups by Dr. Jeff Masters (right), Bob Henson (left), Chris Burt, and other regular contributors.

Nearby

Air Quality

  Air Quality AQ Index Pollutant
Not available.

Snow Depth

Station Depth Elevation

Earthquake Activity

City Distance Mag. Time & Date
Minimum magnitude displayed is 2.5.

Coastal Water Temperatures

Place Temperature

Stations

Nearby Weather Stations

Station Location Temp. Windchill Dew Point Humidity Wind Precip. Elev Updated Type